Time;durP1;ratioP1;P1;durP2;ratioP2;P2;SDS_P1;SDS_P2;PMS_P1;PMS_P2;Temp;Humidity;BMP_temperature;BMP_pressure;BME280_temperature;BME280_humidity;BME280_pressure;Samples;Min_cycle;Max_cycle;Signal;HPM_P1;HPM_P2
2021/12/07 00:00:20;;;;;;;74.45;32.08;;;1.20;99.90;;;;;;4997542;28;20064;-58
2021/12/07 00:02:46;;;;;;;75.63;31.30;;;1.10;99.90;;;;;;4994465;28;20038;-59
2021/12/07 00:05:12;;;;;;;81.35;33.17;;;1.10;99.90;;;;;;5000352;28;20572;-59
2021/12/07 00:07:42;;;;;;;69.97;29.52;;;1.10;99.90;;;;;;4997258;28;20061;-58
2021/12/07 00:10:08;;;;;;;73.70;31.98;;;1.10;99.90;;;;;;5003861;28;20026;-56
2021/12/07 00:12:38;;;;;;;74.22;30.52;;;1.10;99.90;;;;;;5000738;28;20082;-59
2021/12/07 00:15:04;;;;;;;76.53;31.73;;;1.10;99.90;;;;;;4996776;28;20102;-58
2021/12/07 00:17:32;;;;;;;76.43;32.72;;;1.10;99.90;;;;;;5006193;28;20034;-58
2021/12/07 00:19:58;;;;;;;75.50;34.22;;;1.10;99.90;;;;;;5000527;28;20404;-59
2021/12/07 00:22:25;;;;;;;69.32;31.60;;;1.10;99.90;;;;;;5002622;28;20112;-59
2021/12/07 00:24:51;;;;;;;72.82;32.70;;;1.10;99.90;;;;;;5007486;28;20034;-59
2021/12/07 00:27:17;;;;;;;78.85;34.00;;;1.10;99.90;;;;;;4990443;28;20108;-59
2021/12/07 00:29:44;;;;;;;76.57;32.22;;;1.10;99.90;;;;;;5001438;28;20034;-58
2021/12/07 00:32:25;;;;;;;75.32;32.92;;;1.10;99.90;;;;;;5008641;28;20049;-60
2021/12/07 00:37:30;;;;;;;75.35;32.55;;;1.10;99.90;;;;;;4955789;28;1124448;-59
2021/12/07 00:39:57;;;;;;;84.43;36.15;;;1.10;99.90;;;;;;4991077;28;20097;-58
2021/12/07 00:42:23;;;;;;;77.95;34.20;;;1.10;99.90;;;;;;4992005;28;20062;-58
2021/12/07 00:44:49;;;;;;;83.72;33.60;;;1.10;99.90;;;;;;4992841;28;20064;-56
2021/12/07 00:47:16;;;;;;;70.72;32.88;;;1.10;99.90;;;;;;4990669;28;20516;-59
2021/12/07 00:49:42;;;;;;;76.97;33.53;;;1.10;99.90;;;;;;4991360;28;20066;-58
2021/12/07 00:52:08;;;;;;;83.38;33.60;;;1.00;99.90;;;;;;4991922;28;20392;-58
2021/12/07 00:54:34;;;;;;;75.38;32.50;;;1.10;99.90;;;;;;4991258;28;20369;-58
2021/12/07 00:57:02;;;;;;;74.55;31.77;;;1.10;99.90;;;;;;4993550;28;20030;-57
2021/12/07 00:59:28;;;;;;;86.20;33.67;;;1.10;99.90;;;;;;5007422;28;20030;-61
2021/12/07 01:01:54;;;;;;;74.50;33.30;;;1.10;99.90;;;;;;5007390;28;20148;-58
2021/12/07 01:04:19;;;;;;;78.93;33.58;;;1.10;99.90;;;;;;4996500;28;20153;-58
2021/12/07 01:07:06;;;;;;;84.50;34.80;;;1.10;99.90;;;;;;4998855;28;20032;-59
2021/12/07 01:25:50;;;;;;;78.70;33.45;;;1.10;99.90;;;;;;5006619;28;20040;-60
2021/12/07 01:28:30;;;;;;;84.13;35.00;;;1.10;99.90;;;;;;4997528;28;20041;-58
2021/12/07 01:31:20;;;;;;;78.65;33.78;;;1.10;99.90;;;;;;5003081;28;20543;-56
2021/12/07 01:52:02;;;;;;;87.47;35.10;;;1.10;99.90;;;;;;5009955;28;20071;-59
2021/12/07 01:59:53;;;;;;;86.75;36.10;;;1.10;99.90;;;;;;5010292;28;20041;-59
2021/12/07 02:02:22;;;;;;;82.32;36.53;;;1.10;99.90;;;;;;5009316;28;20034;-58
2021/12/07 02:04:48;;;;;;;86.55;36.03;;;1.20;99.90;;;;;;5009567;28;20034;-59
2021/12/07 02:07:14;;;;;;;85.72;35.92;;;1.20;99.90;;;;;;5010284;28;20100;-57
2021/12/07 02:09:44;;;;;;;82.60;36.33;;;1.20;99.90;;;;;;5005151;28;20031;-59
2021/12/07 02:12:12;;;;;;;86.90;37.50;;;1.20;99.90;;;;;;4994524;28;20656;-59
2021/12/07 02:14:39;;;;;;;81.18;35.60;;;1.20;99.90;;;;;;5001599;28;20030;-59
2021/12/07 02:17:12;;;;;;;93.47;37.58;;;1.20;99.90;;;;;;5008613;28;20040;-59
2021/12/07 02:19:39;;;;;;;80.13;35.00;;;1.10;99.90;;;;;;4999536;28;20495;-59
2021/12/07 02:22:05;;;;;;;81.10;34.78;;;1.10;99.90;;;;;;4993902;28;20046;-58
2021/12/07 02:24:31;;;;;;;90.22;35.88;;;1.10;99.90;;;;;;5007207;28;20056;-58
2021/12/07 02:26:58;;;;;;;86.05;37.47;;;1.10;99.90;;;;;;4999162;28;20102;-58
2021/12/07 02:29:24;;;;;;;84.18;36.50;;;1.10;99.90;;;;;;5003205;28;20034;-58
2021/12/07 02:31:51;;;;;;;80.38;35.15;;;1.10;99.90;;;;;;4995083;28;20176;-56
2021/12/07 02:34:18;;;;;;;88.88;37.15;;;1.10;99.90;;;;;;4993177;28;20034;-56
2021/12/07 02:36:44;;;;;;;85.05;36.10;;;1.10;99.90;;;;;;5006924;28;20446;-57
2021/12/07 02:39:11;;;;;;;82.30;33.90;;;1.10;99.90;;;;;;5009167;28;20040;-59
2021/12/07 02:41:38;;;;;;;88.85;37.40;;;1.10;99.90;;;;;;5004291;28;20057;-59
2021/12/07 02:44:07;;;;;;;82.38;36.42;;;1.10;99.90;;;;;;4995686;28;20062;-60
2021/12/07 02:46:38;;;;;;;76.30;34.45;;;1.20;99.90;;;;;;5002153;28;20050;-59
2021/12/07 02:49:08;;;;;;;83.70;36.78;;;1.20;99.90;;;;;;4993958;28;20498;-61
2021/12/07 02:51:34;;;;;;;79.15;35.22;;;1.10;99.90;;;;;;4995880;28;20038;-58
2021/12/07 02:54:01;;;;;;;80.53;34.80;;;1.10;99.90;;;;;;5009756;28;20400;-60
2021/12/07 02:56:27;;;;;;;73.53;32.60;;;1.10;99.90;;;;;;5004219;28;20057;-61
2021/12/07 02:59:00;;;;;;;80.47;34.78;;;1.10;99.90;;;;;;4993931;28;20026;-61
2021/12/07 03:01:31;;;;;;;81.05;35.00;;;1.10;99.90;;;;;;4993499;28;20030;-58
2021/12/07 03:04:09;;;;;;;87.15;38.08;;;1.10;99.90;;;;;;4994426;28;20104;-55
2021/12/07 03:06:51;;;;;;;84.40;35.22;;;1.10;99.90;;;;;;5004268;28;20055;-55
2021/12/07 03:25:56;;;;;;;82.50;35.35;;;1.10;99.90;;;;;;4994076;28;20111;-56
2021/12/07 03:28:17;;;;;;;86.75;36.45;;;1.20;99.90;;;;;;4992684;28;20562;-55
2021/12/07 03:30:42;;;;;;;89.40;36.63;;;1.20;99.90;;;;;;4992870;28;20057;-55
2021/12/07 03:33:08;;;;;;;82.68;37.17;;;1.20;99.90;;;;;;4990568;28;20511;-59
2021/12/07 03:35:35;;;;;;;80.80;34.83;;;1.20;99.90;;;;;;4994037;28;20022;-57
2021/12/07 03:38:02;;;;;;;87.55;37.30;;;1.20;99.90;;;;;;5001365;28;20034;-60
2021/12/07 03:40:30;;;;;;;93.43;37.97;;;1.20;99.90;;;;;;5011678;28;20022;-57
2021/12/07 03:42:56;;;;;;;89.35;38.80;;;1.20;99.90;;;;;;5009502;28;20021;-57
2021/12/07 03:45:22;;;;;;;87.65;37.65;;;1.20;99.90;;;;;;4993829;28;20471;-56
2021/12/07 03:47:48;;;;;;;92.28;39.45;;;1.20;99.90;;;;;;5000134;28;20366;-56
2021/12/07 03:50:14;;;;;;;83.35;36.00;;;1.20;99.90;;;;;;4999413;28;20030;-55
2021/12/07 03:52:40;;;;;;;92.38;38.17;;;1.20;99.90;;;;;;4991643;28;20038;-58
2021/12/07 03:55:06;;;;;;;89.88;35.67;;;1.20;99.90;;;;;;4993204;28;20077;-58
2021/12/07 03:57:32;;;;;;;94.10;38.63;;;1.20;99.90;;;;;;4992566;28;20046;-56
2021/12/07 03:59:59;;;;;;;85.38;35.75;;;1.20;99.90;;;;;;4997241;28;20030;-57
2021/12/07 04:02:25;;;;;;;82.30;36.28;;;1.20;99.90;;;;;;5007016;28;20534;-59
2021/12/07 04:04:58;;;;;;;85.55;36.22;;;1.20;99.90;;;;;;5001954;28;20046;-54
2021/12/07 04:07:24;;;;;;;82.78;36.13;;;1.20;99.90;;;;;;4993986;28;20117;-56
2021/12/07 04:09:49;;;;;;;87.65;36.17;;;1.20;99.90;;;;;;5002243;28;20110;-53
2021/12/07 04:12:15;;;;;;;83.50;35.30;;;1.20;99.90;;;;;;5006847;28;20176;-59
2021/12/07 04:14:41;;;;;;;88.43;37.38;;;1.20;99.90;;;;;;4995874;28;20606;-54
2021/12/07 04:17:07;;;;;;;88.85;36.15;;;1.20;99.90;;;;;;4991186;28;20472;-59
2021/12/07 04:19:32;;;;;;;89.18;37.22;;;1.30;99.90;;;;;;4991483;28;20029;-55
2021/12/07 04:21:58;;;;;;;91.97;37.33;;;1.20;99.90;;;;;;4993016;28;21674;-57
2021/12/07 04:24:27;;;;;;;91.35;37.55;;;1.20;99.90;;;;;;4990049;28;20037;-56
2021/12/07 04:26:54;;;;;;;87.82;38.85;;;1.20;99.90;;;;;;5005888;28;20104;-56
2021/12/07 04:29:20;;;;;;;86.75;36.03;;;1.20;99.90;;;;;;5006242;28;20092;-58
2021/12/07 04:31:46;;;;;;;88.38;36.28;;;1.20;99.90;;;;;;5008051;28;20438;-56
2021/12/07 04:34:12;;;;;;;85.05;36.35;;;1.20;99.90;;;;;;5006195;28;20018;-58
2021/12/07 04:36:37;;;;;;;84.03;36.78;;;1.20;99.90;;;;;;5008284;28;20053;-57
2021/12/07 04:39:03;;;;;;;82.57;36.05;;;1.30;99.90;;;;;;5001596;28;20026;-57
2021/12/07 04:41:32;;;;;;;92.22;37.40;;;1.30;99.90;;;;;;5017636;28;20048;-56
2021/12/07 04:43:59;;;;;;;86.70;36.60;;;1.30;99.90;;;;;;4999853;28;20463;-59
2021/12/07 04:46:38;;;;;;;88.65;37.75;;;1.30;99.90;;;;;;5006721;28;20056;-58
2021/12/07 05:00:00;;;;;;;83.28;34.70;;;1.30;99.90;;;;;;4991728;28;20088;-57
2021/12/07 05:02:25;;;;;;;85.18;36.35;;;1.30;99.90;;;;;;4991169;28;20038;-55
2021/12/07 05:04:51;;;;;;;83.22;35.13;;;1.30;99.90;;;;;;4997675;28;20033;-59
2021/12/07 05:07:31;;;;;;;87.55;37.55;;;1.30;99.90;;;;;;4995031;28;20173;-55
2021/12/07 05:15:04;;;;;;;85.82;37.03;;;1.30;99.90;;;;;;4992574;28;20178;-55
2021/12/07 05:39:06;;;;;;;85.50;36.45;;;1.40;99.90;;;;;;4990753;28;20559;-57
2021/12/07 05:41:32;;;;;;;84.00;36.25;;;1.40;99.90;;;;;;4990919;28;20045;-61
2021/12/07 05:43:58;;;;;;;87.55;36.63;;;1.40;99.90;;;;;;5004948;28;20376;-58
2021/12/07 05:46:23;;;;;;;82.45;36.40;;;1.40;99.90;;;;;;5005226;28;20041;-58
2021/12/07 05:48:49;;;;;;;83.05;35.63;;;1.40;99.90;;;;;;4992073;28;20057;-56
2021/12/07 05:51:15;;;;;;;83.38;35.55;;;1.50;99.90;;;;;;5002682;28;20147;-53
2021/12/07 05:53:41;;;;;;;79.00;33.97;;;1.50;99.90;;;;;;5001110;28;20030;-59
2021/12/07 05:56:06;;;;;;;85.75;35.72;;;1.50;99.90;;;;;;5003196;28;20029;-54
2021/12/07 05:58:32;;;;;;;80.03;35.13;;;1.40;99.90;;;;;;5004493;28;20061;-53
2021/12/07 06:00:58;;;;;;;79.72;33.03;;;1.40;99.90;;;;;;5007092;28;20041;-56
2021/12/07 06:03:25;;;;;;;84.05;33.97;;;1.40;99.90;;;;;;5006349;28;20106;-52
2021/12/07 06:05:52;;;;;;;77.60;35.33;;;1.40;99.90;;;;;;5009407;28;20026;-53
2021/12/07 06:08:18;;;;;;;74.90;30.73;;;1.40;99.90;;;;;;5001414;28;20498;-55
2021/12/07 06:10:44;;;;;;;83.53;36.88;;;1.40;99.90;;;;;;5002524;28;20101;-56
2021/12/07 06:13:09;;;;;;;82.72;33.70;;;1.40;99.90;;;;;;5019853;28;20049;-52
2021/12/07 06:15:38;;;;;;;83.78;33.63;;;1.40;99.90;;;;;;5010377;28;20033;-55
2021/12/07 06:18:04;;;;;;;81.50;35.03;;;1.40;99.90;;;;;;5025939;28;20022;-56
2021/12/07 06:20:30;;;;;;;78.30;33.38;;;1.40;99.90;;;;;;5006466;28;20048;-55
2021/12/07 06:22:55;;;;;;;74.50;30.83;;;1.40;99.90;;;;;;5011093;28;20120;-54
2021/12/07 06:25:21;;;;;;;76.68;32.47;;;1.40;99.90;;;;;;5009729;28;20041;-53
2021/12/07 06:27:47;;;;;;;78.88;33.72;;;1.40;99.90;;;;;;5004402;28;20042;-55
2021/12/07 06:30:14;;;;;;;74.32;32.70;;;1.40;99.90;;;;;;5025891;28;20036;-55
2021/12/07 06:32:40;;;;;;;79.95;33.22;;;1.40;99.90;;;;;;5006473;28;20034;-54
2021/12/07 06:35:07;;;;;;;80.07;33.38;;;1.40;99.90;;;;;;5011907;28;20420;-54
2021/12/07 06:37:33;;;;;;;74.30;30.75;;;1.30;99.90;;;;;;5009780;28;20129;-53
2021/12/07 06:39:59;;;;;;;79.93;32.40;;;1.40;99.90;;;;;;5011543;28;20038;-54
2021/12/07 06:42:25;;;;;;;75.00;32.58;;;1.40;99.90;;;;;;5008913;28;20033;-54
2021/12/07 06:44:51;;;;;;;73.32;32.53;;;1.40;99.90;;;;;;5010899;28;20757;-55
2021/12/07 06:47:16;;;;;;;75.50;32.50;;;1.40;99.90;;;;;;5004791;28;20026;-54
2021/12/07 06:49:42;;;;;;;77.63;33.17;;;1.40;99.90;;;;;;5008783;28;20061;-53
2021/12/07 06:52:08;;;;;;;72.68;31.73;;;1.40;99.90;;;;;;5007733;28;20065;-52
2021/12/07 06:54:35;;;;;;;72.57;31.60;;;1.40;99.90;;;;;;5007014;28;20087;-51
2021/12/07 06:57:01;;;;;;;70.07;31.55;;;1.40;99.90;;;;;;5009597;28;20087;-58
2021/12/07 06:59:26;;;;;;;78.32;32.88;;;1.40;99.90;;;;;;5011084;28;20387;-58
2021/12/07 07:01:52;;;;;;;70.30;31.80;;;1.30;99.90;;;;;;5009646;28;20037;-55
2021/12/07 07:04:18;;;;;;;69.32;29.27;;;1.40;99.90;;;;;;5011207;28;20033;-56
2021/12/07 07:06:44;;;;;;;74.95;32.70;;;1.40;99.90;;;;;;5007985;28;20018;-56
2021/12/07 07:09:11;;;;;;;71.43;29.08;;;1.30;99.90;;;;;;5005616;28;20040;-56
2021/12/07 07:11:37;;;;;;;73.55;30.58;;;1.40;99.90;;;;;;5004278;28;20037;-59
2021/12/07 07:14:03;;;;;;;70.13;29.52;;;1.30;99.90;;;;;;5009926;28;20022;-58
2021/12/07 07:16:29;;;;;;;70.20;31.05;;;1.40;99.90;;;;;;5008752;28;20030;-58
2021/12/07 07:18:56;;;;;;;72.47;30.65;;;1.40;99.90;;;;;;5007684;28;20125;-54
2021/12/07 07:21:22;;;;;;;74.00;31.20;;;1.40;99.90;;;;;;5007943;28;20149;-55
2021/12/07 07:23:49;;;;;;;71.30;30.40;;;1.40;99.90;;;;;;5011353;28;20034;-55
2021/12/07 07:26:15;;;;;;;73.50;30.10;;;1.40;99.90;;;;;;5008848;28;20030;-54
2021/12/07 07:28:41;;;;;;;70.38;31.10;;;1.40;99.90;;;;;;5010222;28;20026;-51
2021/12/07 07:31:08;;;;;;;72.05;31.65;;;1.40;99.90;;;;;;5004010;28;20442;-51
2021/12/07 07:33:34;;;;;;;67.93;29.70;;;1.40;99.90;;;;;;5013449;28;20037;-54
2021/12/07 07:36:00;;;;;;;69.22;28.98;;;1.40;99.90;;;;;;5010523;28;20472;-53
2021/12/07 07:38:25;;;;;;;69.60;30.23;;;1.40;99.90;;;;;;5007969;28;20029;-55
2021/12/07 07:40:51;;;;;;;72.80;32.05;;;1.40;99.90;;;;;;5009926;28;20070;-57
2021/12/07 07:43:18;;;;;;;72.68;30.88;;;1.40;99.90;;;;;;5008582;28;20364;-57
2021/12/07 07:45:45;;;;;;;70.28;30.58;;;1.40;99.90;;;;;;5008701;28;20030;-57
2021/12/07 07:48:11;;;;;;;67.80;31.80;;;1.40;99.90;;;;;;5009497;28;20026;-60
2021/12/07 07:50:37;;;;;;;78.43;33.88;;;1.40;99.90;;;;;;5007989;28;20575;-61
2021/12/07 07:53:03;;;;;;;74.93;31.35;;;1.60;99.90;;;;;;5009718;28;20340;-62
2021/12/07 07:55:29;;;;;;;70.85;31.35;;;1.60;99.90;;;;;;5009733;28;20021;-61
2021/12/07 07:57:55;;;;;;;73.38;30.88;;;1.50;99.90;;;;;;5010305;28;20037;-59
2021/12/07 08:00:21;;;;;;;69.88;30.63;;;1.50;99.90;;;;;;5006176;28;20038;-61
2021/12/07 08:02:47;;;;;;;70.55;30.90;;;1.50;99.90;;;;;;5007829;28;20375;-62
2021/12/07 08:05:14;;;;;;;69.15;30.67;;;1.50;99.90;;;;;;5009667;28;20382;-61
2021/12/07 08:07:39;;;;;;;70.13;29.77;;;1.50;99.90;;;;;;5007994;28;20034;-60
2021/12/07 08:10:08;;;;;;;71.40;32.08;;;1.50;99.90;;;;;;5005803;28;20042;-49
2021/12/07 08:12:35;;;;;;;75.13;31.83;;;1.50;99.90;;;;;;5007859;28;20033;-57
2021/12/07 08:15:02;;;;;;;77.68;31.08;;;1.60;99.90;;;;;;5004836;28;20022;-61
2021/12/07 08:17:28;;;;;;;71.35;30.05;;;1.60;99.90;;;;;;5010073;28;20024;-60
2021/12/07 08:19:53;;;;;;;69.38;31.33;;;1.50;99.90;;;;;;5009310;28;20025;-60
2021/12/07 08:22:19;;;;;;;68.45;30.42;;;1.50;99.90;;;;;;5009302;28;20053;-61
2021/12/07 08:24:45;;;;;;;73.03;31.35;;;1.50;99.90;;;;;;5009493;28;20424;-60
2021/12/07 08:27:12;;;;;;;73.05;31.63;;;1.50;99.90;;;;;;5009988;28;20042;-64
2021/12/07 08:29:38;;;;;;;69.32;32.53;;;1.50;99.90;;;;;;5002738;28;20044;-60
2021/12/07 08:32:04;;;;;;;74.97;32.65;;;1.60;99.90;;;;;;5009018;28;20037;-61
2021/12/07 08:34:30;;;;;;;82.10;32.28;;;1.60;99.90;;;;;;5007872;28;20046;-62
2021/12/07 08:36:55;;;;;;;74.72;30.55;;;1.60;99.90;;;;;;5010028;28;20032;-62
2021/12/07 08:39:21;;;;;;;75.35;32.83;;;1.60;99.90;;;;;;5006936;28;20044;-62
2021/12/07 08:41:46;;;;;;;73.38;29.48;;;1.60;99.90;;;;;;5010381;28;20061;-62
2021/12/07 08:44:12;;;;;;;66.28;29.00;;;1.60;99.90;;;;;;5007355;28;20112;-61
2021/12/07 08:46:39;;;;;;;73.13;30.90;;;1.60;99.90;;;;;;5008582;28;20124;-61
2021/12/07 08:49:05;;;;;;;83.65;32.78;;;1.60;99.90;;;;;;5007446;28;20034;-60
2021/12/07 08:51:31;;;;;;;69.55;29.58;;;1.60;99.90;;;;;;5007172;28;20034;-65
2021/12/07 08:54:15;;;;;;;74.78;33.05;;;1.70;99.90;;;;;;5003652;28;20030;-58
2021/12/07 09:02:26;;;;;;;76.95;33.05;;;1.70;99.90;;;;;;5007583;28;20038;-55
2021/12/07 09:04:55;;;;;;;75.88;31.60;;;1.70;99.90;;;;;;5009897;28;20033;-60
2021/12/07 09:07:23;;;;;;;68.75;29.90;;;1.70;99.90;;;;;;5009030;28;20165;-58
2021/12/07 09:09:48;;;;;;;73.68;31.77;;;1.70;99.90;;;;;;4997018;28;20121;-61
2021/12/07 09:12:16;;;;;;;77.25;32.22;;;1.70;99.90;;;;;;5006404;28;20104;-60
2021/12/07 09:14:43;;;;;;;75.88;31.88;;;1.70;99.90;;;;;;5009448;28;20042;-59
2021/12/07 09:17:10;;;;;;;73.85;32.83;;;1.70;99.90;;;;;;5005671;28;20032;-60
2021/12/07 09:19:36;;;;;;;76.72;33.30;;;1.80;99.90;;;;;;5008479;28;20237;-58
2021/12/07 09:22:02;;;;;;;76.20;32.92;;;1.80;99.90;;;;;;5007298;28;20069;-62
2021/12/07 09:24:28;;;;;;;67.13;31.60;;;1.80;99.90;;;;;;5009550;28;20068;-61
2021/12/07 09:26:54;;;;;;;72.85;32.55;;;1.70;99.90;;;;;;5008293;28;20033;-59
2021/12/07 09:29:19;;;;;;;79.35;33.63;;;1.70;99.90;;;;;;5007035;28;20396;-56
2021/12/07 09:31:46;;;;;;;75.30;32.75;;;1.70;99.90;;;;;;5023653;28;20033;-58
2021/12/07 09:34:12;;;;;;;73.75;32.90;;;1.70;99.90;;;;;;5004827;28;20033;-60
2021/12/07 09:36:40;;;;;;;73.30;32.70;;;1.70;99.90;;;;;;4999448;28;20111;-60
2021/12/07 09:39:12;;;;;;;76.00;30.05;;;1.70;99.90;;;;;;5008430;28;20030;-57
2021/12/07 09:41:38;;;;;;;73.63;30.88;;;1.70;99.90;;;;;;5005864;28;20136;-58
2021/12/07 09:44:05;;;;;;;82.90;32.45;;;1.70;99.90;;;;;;5007669;28;20114;-57
2021/12/07 09:46:32;;;;;;;84.55;34.67;;;1.70;99.90;;;;;;5009533;28;20376;-60
2021/12/07 09:48:58;;;;;;;88.03;36.38;;;1.70;99.90;;;;;;5008544;28;20033;-62
2021/12/07 09:51:25;;;;;;;69.93;31.63;;;1.70;99.90;;;;;;5010605;28;20038;-58
2021/12/07 09:53:53;;;;;;;75.13;33.50;;;1.80;99.90;;;;;;5013504;28;20030;-59
2021/12/07 09:56:20;;;;;;;78.40;33.67;;;1.80;99.90;;;;;;5011969;28;20030;-60
2021/12/07 09:58:49;;;;;;;76.28;33.28;;;1.80;99.90;;;;;;5005384;28;20407;-60
2021/12/07 10:01:14;;;;;;;78.68;33.70;;;1.80;99.90;;;;;;5012818;28;20411;-62
2021/12/07 10:03:40;;;;;;;72.03;31.70;;;1.90;99.90;;;;;;5013069;28;20029;-59
2021/12/07 10:06:07;;;;;;;84.82;35.20;;;1.90;99.90;;;;;;5012773;28;20492;-58
2021/12/07 10:08:32;;;;;;;75.63;34.90;;;1.90;99.90;;;;;;5007657;28;20030;-60
2021/12/07 10:11:01;;;;;;;78.30;34.30;;;1.90;99.90;;;;;;5012974;28;20038;-59
2021/12/07 10:13:29;;;;;;;75.20;33.95;;;2.00;99.90;;;;;;5013998;28;20034;-58
2021/12/07 10:15:57;;;;;;;74.80;33.25;;;2.10;99.90;;;;;;5012715;28;20022;-60
2021/12/07 10:18:27;;;;;;;71.43;31.40;;;2.10;99.90;;;;;;5006093;28;20048;-60
2021/12/07 10:20:58;;;;;;;79.93;34.67;;;2.10;99.90;;;;;;5012316;28;20315;-59
2021/12/07 10:23:43;;;;;;;78.18;34.45;;;2.10;99.90;;;;;;5012440;28;20471;-59
2021/12/07 10:26:17;;;;;;;75.53;31.75;;;2.00;99.90;;;;;;5011469;28;20041;-61
2021/12/07 10:28:43;;;;;;;77.15;32.88;;;2.10;99.90;;;;;;5007248;28;20393;-62
2021/12/07 10:31:35;;;;;;;75.00;33.05;;;2.10;99.90;;;;;;5012339;28;20105;-62
2021/12/07 10:34:01;;;;;;;;;;;2.10;99.90;;;;;;4993222;28;20022;-59
2021/12/07 10:36:49;;;;;;;73.50;32.45;;;2.10;99.90;;;;;;4995167;28;20267;-60
2021/12/07 10:39:16;;;;;;;72.88;32.42;;;2.10;99.90;;;;;;5006221;28;20029;-59
2021/12/07 10:41:52;;;;;;;73.28;32.92;;;2.10;99.90;;;;;;5011551;28;20187;-59
2021/12/07 10:44:27;;;;;;;84.25;34.40;;;2.20;99.90;;;;;;5011846;28;20313;-59
2021/12/07 10:47:03;;;;;;;81.72;34.88;;;2.20;99.90;;;;;;5011552;28;20026;-59
2021/12/07 10:49:37;;;;;;;78.63;34.22;;;2.30;99.90;;;;;;5007019;28;20117;-61
2021/12/07 10:52:11;;;;;;;70.93;32.13;;;2.30;99.90;;;;;;5010933;28;20072;-55
2021/12/07 10:54:42;;;;;;;77.38;32.65;;;2.30;99.90;;;;;;5012308;28;20384;-61
2021/12/07 10:57:12;;;;;;;77.97;33.50;;;2.30;99.90;;;;;;5011125;28;20022;-58
2021/12/07 10:59:39;;;;;;;73.22;32.53;;;2.20;99.90;;;;;;5010663;28;20269;-61
2021/12/07 11:02:17;;;;;;;75.70;33.72;;;2.10;99.90;;;;;;5010793;28;20026;-59
2021/12/07 11:04:44;;;;;;;69.78;32.00;;;2.10;99.90;;;;;;5010051;28;20073;-54
2021/12/07 11:07:16;;;;;;;77.22;33.17;;;2.10;99.90;;;;;;5008637;28;20428;-58
2021/12/07 11:10:09;;;;;;;74.88;30.80;;;2.10;99.90;;;;;;5004763;28;20037;-56
2021/12/07 11:12:53;;;;;;;75.60;33.95;;;2.00;99.90;;;;;;5008732;28;20474;-60
2021/12/07 11:15:24;;;;;;;73.15;32.45;;;2.10;99.90;;;;;;5011261;28;20021;-60
2021/12/07 11:17:56;;;;;;;73.47;32.67;;;2.10;99.90;;;;;;5009857;28;20029;-59
2021/12/07 11:20:22;;;;;;;78.30;33.10;;;2.20;99.90;;;;;;5007948;28;20838;-61
2021/12/07 11:22:55;;;;;;;68.03;30.55;;;2.30;99.90;;;;;;5010777;28;20156;-61
2021/12/07 11:31:20;;;;;;;72.00;31.00;;;2.30;99.90;;;;;;5006355;28;20179;-60
2021/12/07 11:33:48;;;;;;;77.90;34.00;;;2.30;99.90;;;;;;5011390;28;20029;-59
2021/12/07 11:36:17;;;;;;;76.22;33.92;;;2.30;99.90;;;;;;5005420;28;20030;-62
2021/12/07 11:38:42;;;;;;;71.90;31.45;;;2.40;99.90;;;;;;5010902;28;20038;-61
2021/12/07 11:41:21;;;;;;;78.93;33.53;;;2.40;99.90;;;;;;5006603;28;20029;-61
2021/12/07 11:44:08;;;;;;;67.45;29.60;;;2.40;99.90;;;;;;5002540;28;20424;-62
2021/12/07 11:46:37;;;;;;;66.10;30.90;;;2.40;99.90;;;;;;5025556;28;20054;-60
2021/12/07 11:49:09;;;;;;;75.82;32.25;;;2.40;99.90;;;;;;5005027;28;20044;-60
2021/12/07 11:51:37;;;;;;;74.40;31.73;;;2.40;99.90;;;;;;5010072;28;20022;-60
2021/12/07 11:54:03;;;;;;;75.32;31.48;;;2.40;99.90;;;;;;5002416;28;20034;-58
2021/12/07 11:56:30;;;;;;;79.55;34.00;;;2.40;99.90;;;;;;5004626;28;20462;-57
2021/12/07 11:58:55;;;;;;;74.35;33.63;;;2.40;99.90;;;;;;5009390;28;20018;-57
2021/12/07 12:01:21;;;;;;;78.43;34.10;;;2.40;99.90;;;;;;5010384;28;20373;-57
2021/12/07 12:03:47;;;;;;;74.68;32.22;;;2.40;99.90;;;;;;5010567;28;20459;-58
2021/12/07 12:06:13;;;;;;;66.88;31.85;;;2.50;99.90;;;;;;5009936;28;20037;-58
2021/12/07 12:08:40;;;;;;;67.07;31.08;;;2.50;99.90;;;;;;5007707;28;20036;-58
2021/12/07 12:11:19;;;;;;;71.68;31.98;;;2.50;99.90;;;;;;5001892;28;20056;-58
2021/12/07 12:14:38;;;;;;;78.20;32.90;;;2.50;99.90;;;;;;5021169;28;20038;-62
2021/12/07 12:17:13;;;;;;;70.35;30.52;;;2.50;99.90;;;;;;4923713;29;20597;-62
2021/12/07 12:19:57;;;;;;;82.22;33.90;;;2.60;99.90;;;;;;5007662;28;20039;-60
2021/12/07 12:22:55;;;;;;;76.75;31.45;;;2.60;99.90;;;;;;5007421;28;20041;-62
2021/12/07 12:25:23;;;;;;;71.95;32.55;;;2.60;99.90;;;;;;4969561;28;20050;-60
2021/12/07 12:27:51;;;;;;;72.22;32.17;;;2.60;99.90;;;;;;5006026;28;20030;-60
2021/12/07 12:30:44;;;;;;;82.75;34.72;;;2.60;99.90;;;;;;5009665;28;20029;-61
2021/12/07 12:33:12;;;;;;;86.28;34.03;;;2.70;99.90;;;;;;5006743;28;20042;-61
2021/12/07 12:35:41;;;;;;;85.50;35.60;;;2.60;99.90;;;;;;5014595;28;20534;-60
2021/12/07 12:38:25;;;;;;;70.05;32.30;;;2.60;99.90;;;;;;5008095;28;20037;-59
2021/12/07 12:40:56;;;;;;;75.05;34.33;;;2.60;99.90;;;;;;5009837;28;20427;-63
2021/12/07 12:43:50;;;;;;;75.47;31.58;;;2.70;99.90;;;;;;5010065;28;20033;-60
2021/12/07 12:46:19;;;;;;;85.45;33.90;;;2.70;99.90;;;;;;5008504;28;20109;-59
2021/12/07 12:48:48;;;;;;;70.75;33.22;;;2.70;99.90;;;;;;5003657;28;20065;-61
2021/12/07 12:51:15;;;;;;;75.07;32.75;;;2.80;99.90;;;;;;5008181;28;20026;-61
2021/12/07 12:53:41;;;;;;;72.18;33.40;;;2.80;99.90;;;;;;5008963;28;20052;-61
2021/12/07 12:56:10;;;;;;;77.95;33.92;;;2.80;99.90;;;;;;5007990;28;20101;-57
2021/12/07 12:58:44;;;;;;;71.70;32.60;;;2.70;99.90;;;;;;5003601;28;20084;-61
2021/12/07 13:01:25;;;;;;;72.00;32.25;;;2.80;99.90;;;;;;5008366;28;20116;-53
2021/12/07 13:04:14;;;;;;;85.53;33.03;;;2.80;99.90;;;;;;5002496;28;20037;-61
2021/12/07 13:07:00;;;;;;;77.03;31.83;;;2.70;99.90;;;;;;5008646;28;20026;-61
2021/12/07 13:09:32;;;;;;;75.85;31.92;;;2.70;99.90;;;;;;5006681;28;20506;-61
2021/12/07 13:12:19;;;;;;;78.35;33.40;;;2.70;99.90;;;;;;5005956;28;20149;-60
2021/12/07 13:15:00;;;;;;;73.53;30.23;;;2.70;99.90;;;;;;5018258;28;20083;-61
2021/12/07 13:17:48;;;;;;;72.27;32.17;;;2.70;99.90;;;;;;5006737;28;20026;-60
2021/12/07 13:20:25;;;;;;;76.57;33.67;;;2.70;99.90;;;;;;4990808;28;20025;-61
2021/12/07 13:23:00;;;;;;;77.30;33.40;;;2.70;99.90;;;;;;5002309;28;20491;-61
2021/12/07 13:25:41;;;;;;;73.38;32.92;;;2.70;99.90;;;;;;5010198;28;20050;-60
2021/12/07 13:28:21;;;;;;;79.55;33.67;;;2.70;99.90;;;;;;5011900;28;20119;-60
2021/12/07 13:30:55;;;;;;;73.72;33.22;;;2.70;99.90;;;;;;5012052;28;20596;-54
2021/12/07 13:33:29;;;;;;;74.10;31.38;;;2.60;99.90;;;;;;5011890;28;20034;-58
2021/12/07 13:35:54;;;;;;;74.55;33.72;;;2.60;99.90;;;;;;5026680;28;20175;-57
2021/12/07 13:38:29;;;;;;;74.38;32.58;;;2.60;99.90;;;;;;5008641;28;20065;-57
2021/12/07 13:41:15;;;;;;;77.15;33.30;;;2.60;99.90;;;;;;5012358;28;20088;-61
2021/12/07 13:43:49;;;;;;;76.57;33.08;;;2.60;99.90;;;;;;4998501;28;20124;-62
2021/12/07 13:46:20;;;;;;;86.78;36.55;;;2.50;99.90;;;;;;5012680;28;20037;-58
2021/12/07 13:48:48;;;;;;;72.45;32.25;;;2.50;99.90;;;;;;5009611;28;20036;-61
2021/12/07 13:51:16;;;;;;;75.65;33.00;;;2.50;99.90;;;;;;5012777;28;20387;-62
2021/12/07 13:53:43;;;;;;;72.10;31.17;;;2.60;99.90;;;;;;5012321;28;20045;-60
2021/12/07 13:56:09;;;;;;;72.47;33.53;;;2.50;99.90;;;;;;5010556;28;20032;-57
2021/12/07 13:58:52;;;;;;;83.55;33.80;;;2.50;99.90;;;;;;5010796;28;20413;-56
2021/12/07 14:01:18;;;;;;;82.90;34.75;;;2.50;99.90;;;;;;5012525;28;20026;-61
2021/12/07 14:03:45;;;;;;;77.25;34.80;;;2.60;99.90;;;;;;5012231;28;20030;-57
2021/12/07 14:06:10;;;;;;;76.07;34.00;;;2.60;99.90;;;;;;5000941;28;20365;-60
2021/12/07 14:08:36;;;;;;;76.15;33.00;;;2.60;99.90;;;;;;4998961;28;20026;-55
2021/12/07 14:11:02;;;;;;;76.28;32.70;;;2.60;99.90;;;;;;5012854;28;20041;-57
2021/12/07 14:13:28;;;;;;;79.20;33.90;;;2.60;99.90;;;;;;5012769;28;20038;-59
2021/12/07 14:15:54;;;;;;;82.13;34.47;;;2.60;99.90;;;;;;5012774;28;20022;-59
2021/12/07 14:18:26;;;;;;;76.28;32.90;;;2.60;99.90;;;;;;5023946;28;20648;-59
2021/12/07 14:20:56;;;;;;;74.85;32.40;;;2.60;99.90;;;;;;5006376;28;20076;-61
2021/12/07 14:23:27;;;;;;;73.60;33.20;;;2.60;99.90;;;;;;5012750;28;20034;-54
2021/12/07 14:25:58;;;;;;;77.80;33.90;;;2.60;99.90;;;;;;5005052;28;20042;-58
2021/12/07 14:28:33;;;;;;;77.97;33.13;;;2.60;99.90;;;;;;5011195;28;20033;-57
2021/12/07 14:31:06;;;;;;;80.88;35.55;;;2.60;99.90;;;;;;5004988;28;20276;-57
2021/12/07 14:33:39;;;;;;;79.50;35.35;;;2.60;99.90;;;;;;4997414;28;20149;-57
2021/12/07 14:36:05;;;;;;;81.65;35.20;;;2.60;99.90;;;;;;5016391;28;20022;-55